This is the latest recevied weather packets stored in our database for station/object NM5PB. If no packets are shown the sender has not sent any weather packets the latest 10 day(s).
| Time | Temp. | Humidity | Pressure | Rain* | Wind** | Luminosity | Snow |
|---|---|---|---|---|---|---|---|
| 1777744864 | 14.44° C | 39% | - | 0 mm | - | - | - |
| 1777744264 | 14.44° C | 39% | - | 0 mm | - | - | - |
| 1777743664 | 14.44° C | 39% | - | 0 mm | - | - | - |
| 1777743064 | 13.33° C | 39% | - | 0 mm | - | - | - |
| 1777742464 | 13.33° C | 42% | - | 0 mm | - | - | - |
| 1777741864 | 13.89° C | 39% | - | 0 mm | - | - | - |
| 1777741264 | 13.89° C | 40% | - | 0 mm | - | - | - |
| 1777740664 | 13.33° C | 40% | - | 0 mm | - | - | - |
| 1777740064 | 12.22° C | 45% | - | 0 mm | - | - | - |
| 1777739464 | 12.78° C | 42% | - | 0 mm | - | - | - |
| 1777738864 | 12.22° C | 44% | - | 0 mm | - | - | - |
| 1777738264 | 12.78° C | 42% | - | 0 mm | - | - | - |
| 1777737664 | 12.22° C | 42% | - | 0 mm | - | - | - |
| 1777737064 | 12.78° C | 45% | - | 0 mm | - | - | - |
| 1777736464 | 12.78° C | 45% | - | 0 mm | - | - | - |
| 1777735864 | 12.22° C | 46% | - | 0 mm | - | - | - |
| 1777735264 | 12.22° C | 46% | - | 0 mm | - | - | - |
| 1777734664 | 11.67° C | 52% | - | 0 mm | - | - | - |
| 1777734064 | 11.67° C | 51% | - | 0 mm | - | - | - |
| 1777733464 | 11.67° C | 54% | - | 0 mm | - | - | - |
| 1777732864 | 11.11° C | 58% | - | 0 mm | - | - | - |
| 1777732264 | 10.56° C | 61% | - | 0 mm | - | - | - |
| 1777731664 | 10° C | 64% | - | 0 mm | - | - | - |
| 1777731064 | 9.44° C | 67% | - | 0 mm | - | - | - |
| 1777730464 | 8.89° C | 71% | - | 0 mm | - | - | - |
* Rain latest hour (hover to see other rain measurements)
** Current wind speed in m/s (hover to see current wind gust speed)